createdAt,value
2019-05-26T00:02:39.396Z,66.33
2019-05-26T00:05:36.474Z,88.60
2019-05-26T00:08:32.698Z,73.45
2019-05-26T00:11:30.140Z,84.52
2019-05-26T00:14:28.297Z,81.87
2019-05-26T00:17:26.079Z,91.80
2019-05-26T00:20:22.998Z,90.67
2019-05-26T00:23:18.011Z,85.10
2019-05-26T00:26:13.274Z,91.42
2019-05-26T00:29:08.436Z,85.70
2019-05-26T00:32:03.632Z,98.67
2019-05-26T00:35:01.501Z,84.45
2019-05-26T00:37:57.918Z,83.95
2019-05-26T00:40:54.130Z,75.20
2019-05-26T00:43:49.619Z,85.65
2019-05-26T00:46:45.244Z,90.97
2019-05-26T00:49:40.569Z,86.12
2019-05-26T00:52:35.695Z,81.63
2019-05-26T00:55:32.441Z,88.67
2019-05-26T00:58:30.224Z,98.92
2019-05-26T01:01:29.411Z,90.57
2019-05-26T01:04:25.741Z,91.65
2019-05-26T01:07:21.157Z,95.72
2019-05-26T01:10:16.461Z,112.60
2019-05-26T01:13:11.437Z,91.87
2019-05-26T01:16:06.301Z,105.25
2019-05-26T01:19:01.572Z,91.60
2019-05-26T01:22:00.481Z,94.97
2019-05-26T01:24:55.266Z,87.12
2019-05-26T01:27:51.092Z,91.20
2019-05-26T01:30:48.254Z,108.97
2019-05-26T01:33:43.198Z,97.92
2019-05-26T01:36:38.523Z,99.10
2019-05-26T01:39:33.512Z,97.47
2019-05-26T01:42:28.571Z,97.05
2019-05-26T01:45:23.308Z,110.08
2019-05-26T01:48:18.529Z,84.85
2019-05-26T01:51:13.360Z,95.87
2019-05-26T01:54:08.255Z,97.37
2019-05-26T01:57:03.767Z,86.75
2019-05-26T01:59:59.584Z,96.90
2019-05-26T02:02:57.174Z,94.17
2019-05-26T02:05:53.699Z,103.40
2019-05-26T02:08:54.367Z,97.33
2019-05-26T02:11:54.846Z,91.82
2019-05-26T02:14:55.798Z,94.97
2019-05-26T02:17:56.774Z,92.25
2019-05-26T02:20:59.538Z,86.53
2019-05-26T02:24:00.861Z,104.23
2019-05-26T02:27:02.182Z,85.07
2019-05-26T02:30:02.320Z,89.60
2019-05-26T02:32:58.334Z,97.33
2019-05-26T02:35:54.591Z,96.63
2019-05-26T02:39:02.205Z,100.45
2019-05-26T02:41:48.744Z,89.62
2019-05-26T02:44:44.568Z,93.10
2019-05-26T02:47:41.659Z,88.85
2019-05-26T02:50:38.230Z,91.53
2019-05-26T02:53:34.651Z,76.00
2019-05-26T02:56:30.848Z,69.17
2019-05-26T02:59:30.260Z,82.22
2019-05-26T03:02:27.019Z,75.08
2019-05-26T03:05:22.723Z,78.25
2019-05-26T03:08:22.527Z,78.10
2019-05-26T03:11:18.476Z,81.22
2019-05-26T03:14:14.039Z,81.08
2019-05-26T03:17:09.338Z,65.47
2019-05-26T03:20:05.723Z,91.85
2019-05-26T03:23:01.186Z,91.05
2019-05-26T03:25:57.999Z,77.87
2019-05-26T03:28:53.888Z,84.70
2019-05-26T03:31:49.901Z,84.58
2019-05-26T03:34:47.255Z,82.75
2019-05-26T03:37:42.566Z,86.63
2019-05-26T03:40:38.987Z,82.57
2019-05-26T03:43:37.030Z,83.10
2019-05-26T03:46:32.591Z,64.05
2019-05-26T03:49:27.880Z,83.62
2019-05-26T03:52:23.362Z,71.35
2019-05-26T03:55:18.567Z,73.30
2019-05-26T03:58:17.397Z,75.50
2019-05-26T04:01:12.867Z,54.45
2019-05-26T04:04:09.286Z,66.40
2019-05-26T04:07:04.706Z,65.25
2019-05-26T04:10:05.414Z,74.27
2019-05-26T04:12:55.994Z,57.60
2019-05-26T04:15:51.331Z,74.60
2019-05-26T04:18:47.287Z,59.45
2019-05-26T04:21:43.456Z,70.37
2019-05-26T04:24:39.337Z,63.05
2019-05-26T04:27:35.133Z,69.82
2019-05-26T04:30:30.625Z,62.93
2019-05-26T04:33:27.642Z,59.75
2019-05-26T04:36:24.280Z,53.70
2019-05-26T04:39:19.523Z,59.90
2019-05-26T04:42:15.243Z,66.25
2019-05-26T04:45:12.152Z,62.70
2019-05-26T04:48:08.007Z,62.45
2019-05-26T04:51:06.069Z,58.73
2019-05-26T04:54:03.140Z,65.42
2019-05-26T04:56:59.016Z,55.63
2019-05-26T04:59:54.013Z,45.50
2019-05-26T05:02:49.187Z,62.48
2019-05-26T05:05:44.744Z,58.75
2019-05-26T05:08:39.607Z,40.70
2019-05-26T05:11:36.019Z,64.55
2019-05-26T05:14:31.268Z,49.95
2019-05-26T05:17:31.174Z,65.22
2019-05-26T05:20:26.367Z,49.63
2019-05-26T05:23:21.103Z,55.98
2019-05-26T05:26:17.660Z,55.92
2019-05-26T05:29:12.557Z,50.55
2019-05-26T05:32:07.791Z,62.38
2019-05-26T05:35:02.663Z,52.70
2019-05-26T05:37:57.776Z,58.50
2019-05-26T05:40:59.375Z,58.98
2019-05-26T05:43:48.649Z,47.62
2019-05-26T05:46:43.811Z,48.20
2019-05-26T05:49:38.540Z,57.83
2019-05-26T05:52:33.502Z,61.50
2019-05-26T05:55:29.235Z,59.45
2019-05-26T05:58:27.254Z,54.18
2019-05-26T06:01:22.894Z,55.30
2019-05-26T06:04:17.975Z,56.53
2019-05-26T06:07:13.939Z,56.63
2019-05-26T06:10:10.274Z,50.78
2019-05-26T06:13:06.633Z,55.63
2019-05-26T06:16:01.386Z,51.98
2019-05-26T06:18:57.201Z,52.33
2019-05-26T06:21:53.063Z,36.63
2019-05-26T06:24:49.511Z,49.98
2019-05-26T06:27:45.472Z,57.30
2019-05-26T06:30:43.719Z,46.75
2019-05-26T06:33:39.616Z,56.10
2019-05-26T06:36:35.479Z,53.48
2019-05-26T06:39:31.571Z,41.77
2019-05-26T06:42:29.284Z,48.55
2019-05-26T06:45:25.375Z,53.42
2019-05-26T06:48:20.982Z,60.60
2019-05-26T06:51:17.438Z,48.68
2019-05-26T06:54:13.762Z,43.83
2019-05-26T06:57:08.685Z,45.98
2019-05-26T07:00:04.354Z,43.42
2019-05-26T07:02:59.896Z,50.52
2019-05-26T07:05:57.241Z,42.67
2019-05-26T07:08:52.146Z,37.15
2019-05-26T07:11:57.090Z,40.58
2019-05-26T07:14:44.158Z,48.65
2019-05-26T07:17:39.620Z,46.95
2019-05-26T07:20:35.133Z,48.02
2019-05-26T07:23:30.447Z,56.60
2019-05-26T07:26:25.769Z,46.08
2019-05-26T07:29:20.826Z,46.48
2019-05-26T07:32:15.902Z,43.80
2019-05-26T07:35:11.795Z,50.33
2019-05-26T07:38:06.440Z,49.30
2019-05-26T07:41:02.676Z,48.00
2019-05-26T07:43:58.425Z,66.17
2019-05-26T07:46:53.226Z,52.03
2019-05-26T07:49:48.122Z,39.80
2019-05-26T07:52:43.870Z,53.65
2019-05-26T07:55:38.529Z,53.17
2019-05-26T07:58:34.011Z,53.55
2019-05-26T08:01:35.522Z,59.42
2019-05-26T08:04:24.972Z,51.35
2019-05-26T08:07:23.086Z,49.33
2019-05-26T08:10:17.459Z,60.25
2019-05-26T08:13:12.201Z,49.00
2019-05-26T08:16:07.072Z,54.00
2019-05-26T08:19:03.301Z,47.62
2019-05-26T08:21:58.380Z,51.08
2019-05-26T08:24:56.675Z,49.25
2019-05-26T08:27:51.528Z,37.13
2019-05-26T08:30:46.657Z,38.90
2019-05-26T08:33:41.746Z,51.33
2019-05-26T08:36:38.004Z,61.77
2019-05-26T08:39:33.097Z,39.42
2019-05-26T08:42:42.063Z,47.10
2019-05-26T08:45:23.719Z,49.35
2019-05-26T08:48:19.740Z,52.90
2019-05-26T08:51:15.219Z,55.58
2019-05-26T08:54:11.113Z,43.83
2019-05-26T08:57:06.623Z,55.33
2019-05-26T09:00:06.087Z,68.60
2019-05-26T09:03:03.993Z,48.23
2019-05-26T09:05:59.497Z,46.28
2019-05-26T09:08:56.964Z,47.33
2019-05-26T09:11:52.195Z,50.63
2019-05-26T09:14:47.454Z,41.00
2019-05-26T09:17:44.244Z,45.45
2019-05-26T09:20:41.759Z,50.60
2019-05-26T09:23:39.237Z,44.45
2019-05-26T09:26:38.446Z,35.52
2019-05-26T09:29:36.947Z,36.63
2019-05-26T09:32:32.445Z,51.45
2019-05-26T09:35:28.818Z,39.88
2019-05-26T09:38:24.149Z,41.40
2019-05-26T09:41:20.103Z,32.60
2019-05-26T09:44:15.116Z,36.65
2019-05-26T09:47:11.076Z,36.48
2019-05-26T09:50:06.349Z,50.35
2019-05-26T09:53:03.389Z,46.23
2019-05-26T09:55:58.643Z,43.02
2019-05-26T09:58:55.566Z,33.25
2019-05-26T10:01:50.743Z,32.17
2019-05-26T10:04:46.857Z,36.10
2019-05-26T10:07:42.326Z,42.17
2019-05-26T10:10:39.604Z,45.92
2019-05-26T10:13:34.784Z,33.70
2019-05-26T10:16:30.504Z,37.08
2019-05-26T10:19:27.528Z,39.58
2019-05-26T10:22:22.858Z,87.40
2019-05-26T10:25:19.529Z,44.50
2019-05-26T10:28:15.162Z,35.52
2019-05-26T10:31:10.592Z,43.50
2019-05-26T10:34:06.495Z,39.30
2019-05-26T10:37:01.599Z,53.10
2019-05-26T10:39:57.854Z,42.45
2019-05-26T10:42:55.674Z,51.55
2019-05-26T10:45:51.406Z,43.05
2019-05-26T10:48:47.196Z,41.15
2019-05-26T10:51:42.307Z,40.48
2019-05-26T10:54:37.827Z,49.30
2019-05-26T10:57:35.264Z,45.55
2019-05-26T11:00:33.847Z,54.50
2019-05-26T11:03:31.316Z,38.95
2019-05-26T11:06:26.717Z,44.53
2019-05-26T11:09:26.526Z,39.58
2019-05-26T11:12:24.143Z,45.73
2019-05-26T11:15:21.504Z,35.38
2019-05-26T11:18:18.955Z,45.30
2019-05-26T11:21:16.943Z,42.17
2019-05-26T11:24:15.150Z,47.27
2019-05-26T11:27:14.279Z,46.33
2019-05-26T11:30:11.359Z,47.33
2019-05-26T11:33:09.251Z,36.28
2019-05-26T11:36:07.020Z,42.67
2019-05-26T11:39:05.190Z,38.65
2019-05-26T11:42:12.731Z,46.95
2019-05-26T11:44:58.080Z,47.05
2019-05-26T11:47:54.897Z,37.08
2019-05-26T11:50:50.247Z,44.30
2019-05-26T11:53:45.261Z,58.10
2019-05-26T11:56:41.595Z,45.48
2019-05-26T11:59:37.924Z,53.15
2019-05-26T12:02:35.377Z,58.40
2019-05-26T12:05:30.415Z,53.95
2019-05-26T12:08:25.341Z,41.08
2019-05-26T12:11:20.344Z,53.10
2019-05-26T12:14:15.081Z,47.58
2019-05-26T12:17:09.952Z,39.18
2019-05-26T12:20:05.425Z,42.70
2019-05-26T12:23:00.570Z,46.88
2019-05-26T12:25:57.751Z,53.80
2019-05-26T12:28:56.196Z,54.20
2019-05-26T12:31:51.450Z,57.75
2019-05-26T12:34:47.992Z,51.45
2019-05-26T12:37:43.947Z,42.75
2019-05-26T12:40:41.292Z,56.98
2019-05-26T12:43:39.012Z,55.30
2019-05-26T12:46:36.642Z,59.67
2019-05-26T12:49:35.349Z,57.95
2019-05-26T12:52:31.731Z,60.55
2019-05-26T12:55:28.320Z,54.45
2019-05-26T12:58:24.784Z,69.92
2019-05-26T13:01:20.899Z,65.67
2019-05-26T13:04:16.998Z,64.60
2019-05-26T13:07:13.553Z,62.03
2019-05-26T13:10:09.771Z,61.30
2019-05-26T13:13:07.005Z,65.25
2019-05-26T13:16:03.473Z,65.45
2019-05-26T13:18:58.533Z,55.40
2019-05-26T13:21:56.005Z,56.80
2019-05-26T13:24:52.345Z,54.03
2019-05-26T13:27:48.768Z,61.77
2019-05-26T13:30:44.554Z,72.97
2019-05-26T13:33:41.686Z,78.97
2019-05-26T13:36:38.507Z,72.37
2019-05-26T13:39:36.535Z,67.82
2019-05-26T13:42:34.309Z,95.55
2019-05-26T13:45:33.831Z,86.72
2019-05-26T13:48:28.880Z,95.15
2019-05-26T13:51:27.192Z,92.88
2019-05-26T13:54:23.268Z,82.55
2019-05-26T13:57:20.093Z,82.80
2019-05-26T14:00:16.328Z,73.83
2019-05-26T14:03:11.946Z,78.30
2019-05-26T14:06:08.060Z,67.67
2019-05-26T14:09:04.918Z,75.52
2019-05-26T14:12:01.983Z,68.45
2019-05-26T14:14:58.737Z,74.62
2019-05-26T14:17:55.570Z,70.10
2019-05-26T14:20:51.305Z,78.78
2019-05-26T14:23:47.970Z,83.52
2019-05-26T14:26:45.003Z,84.52
2019-05-26T14:29:41.881Z,86.17
2019-05-26T14:32:37.314Z,82.27
2019-05-26T14:35:33.880Z,80.30
2019-05-26T14:38:42.228Z,85.05
2019-05-26T14:41:27.835Z,88.10
2019-05-26T14:44:23.593Z,97.10
2019-05-26T14:47:20.033Z,82.33
2019-05-26T14:50:15.793Z,79.95
2019-05-26T14:53:11.351Z,94.60
2019-05-26T14:56:06.845Z,90.15
2019-05-26T14:59:02.583Z,96.90
2019-05-26T15:01:58.043Z,97.27
2019-05-26T15:04:53.511Z,108.10
2019-05-26T15:07:49.111Z,107.78
2019-05-26T15:10:45.625Z,112.85
2019-05-26T15:13:43.684Z,118.08
2019-05-26T15:16:42.253Z,133.65
2019-05-26T15:19:41.287Z,118.40
2019-05-26T15:22:38.777Z,127.85
2019-05-26T15:25:38.250Z,118.47
2019-05-26T15:28:35.320Z,112.55
2019-05-26T15:31:33.466Z,124.80
2019-05-26T15:34:29.538Z,132.07
2019-05-26T15:37:26.074Z,105.85
2019-05-26T15:40:23.624Z,104.35
2019-05-26T15:43:20.179Z,113.88
2019-05-26T15:46:24.636Z,101.38
2019-05-26T15:49:13.947Z,94.50
2019-05-26T15:52:10.324Z,82.70
2019-05-26T15:55:05.939Z,79.32
2019-05-26T15:58:02.357Z,68.30
2019-05-26T16:00:58.439Z,79.95
2019-05-26T16:03:57.831Z,123.35
2019-05-26T16:06:58.051Z,112.05
2019-05-26T16:09:54.906Z,100.97
2019-05-26T16:12:50.965Z,94.87
2019-05-26T16:15:46.955Z,110.12
2019-05-26T16:18:42.102Z,120.33
2019-05-26T16:21:37.959Z,128.18
2019-05-26T16:24:33.541Z,118.60
2019-05-26T16:27:29.060Z,117.72
2019-05-26T16:30:24.425Z,137.32
2019-05-26T16:33:19.572Z,92.57
2019-05-26T16:36:14.453Z,143.68
2019-05-26T16:39:10.629Z,115.10
2019-05-26T16:42:06.292Z,111.08
2019-05-26T16:45:02.448Z,114.12
2019-05-26T16:47:58.969Z,140.18
2019-05-26T16:50:55.304Z,134.35
2019-05-26T16:53:51.306Z,108.30
2019-05-26T16:56:47.525Z,150.22
2019-05-26T16:59:44.154Z,126.00
2019-05-26T17:02:41.551Z,101.35
2019-05-26T17:05:38.410Z,95.35
2019-05-26T17:08:34.857Z,108.47
2019-05-26T17:11:30.886Z,101.62
2019-05-26T17:14:26.075Z,104.15
2019-05-26T17:17:21.791Z,92.15
2019-05-26T17:20:16.893Z,138.50
2019-05-26T17:23:12.908Z,99.77
2019-05-26T17:26:08.053Z,110.45
2019-05-26T17:29:03.004Z,101.58
2019-05-26T17:31:57.801Z,89.55
2019-05-26T17:34:52.731Z,90.15
2019-05-26T17:37:48.143Z,103.27
2019-05-26T17:40:43.829Z,102.15
2019-05-26T17:43:38.991Z,94.03
2019-05-26T17:46:34.239Z,97.02
2019-05-26T17:49:29.091Z,93.25
2019-05-26T17:52:23.714Z,95.42
2019-05-26T17:55:19.318Z,90.97
2019-05-26T17:58:14.730Z,79.72
2019-05-26T18:01:09.881Z,94.05
2019-05-26T18:04:04.957Z,109.00
2019-05-26T18:06:59.989Z,108.92
2019-05-26T18:09:57.307Z,93.58
2019-05-26T18:12:52.478Z,90.77
2019-05-26T18:15:47.581Z,73.35
2019-05-26T18:18:42.684Z,70.52
2019-05-26T18:21:37.560Z,69.17
2019-05-26T18:24:32.412Z,78.02
2019-05-26T18:27:27.071Z,74.32
2019-05-26T18:30:23.213Z,74.40
2019-05-26T18:33:18.898Z,85.45
2019-05-26T18:36:13.805Z,85.38
2019-05-26T18:39:10.572Z,72.55
2019-05-26T18:42:05.696Z,87.20
2019-05-26T18:45:01.673Z,78.45
2019-05-26T18:48:03.136Z,64.40
2019-05-26T18:50:53.383Z,68.75
2019-05-26T18:53:48.155Z,88.97
2019-05-26T18:56:43.207Z,70.22
2019-05-26T18:59:38.753Z,77.95
2019-05-26T19:02:35.623Z,77.12
2019-05-26T19:05:34.624Z,56.58
2019-05-26T19:08:28.030Z,62.85
2019-05-26T19:11:23.445Z,62.67
2019-05-26T19:14:19.453Z,60.35
2019-05-26T19:17:15.455Z,67.08
2019-05-26T19:20:16.507Z,60.92
2019-05-26T19:23:06.834Z,65.40
2019-05-26T19:26:02.301Z,56.53
2019-05-26T19:28:57.107Z,72.15
2019-05-26T19:31:53.847Z,66.87
2019-05-26T19:34:49.851Z,66.00
2019-05-26T19:37:44.789Z,68.72
2019-05-26T19:40:40.292Z,78.72
2019-05-26T19:43:35.892Z,61.35
2019-05-26T19:46:30.857Z,60.75
2019-05-26T19:49:26.236Z,72.87
2019-05-26T19:52:21.768Z,66.90
2019-05-26T19:55:17.042Z,61.02
2019-05-26T19:58:11.957Z,65.57
2019-05-26T20:01:07.373Z,54.40
2019-05-26T20:04:04.097Z,64.75
2019-05-26T20:06:58.853Z,67.45
2019-05-26T20:09:53.827Z,61.18
2019-05-26T20:12:49.642Z,56.85
2019-05-26T20:15:44.671Z,50.15
2019-05-26T20:18:39.430Z,50.05
2019-05-26T20:21:34.826Z,50.70
2019-05-26T20:24:30.107Z,58.78
2019-05-26T20:27:25.242Z,54.13
2019-05-26T20:30:21.843Z,56.85
2019-05-26T20:33:15.700Z,53.45
2019-05-26T20:36:10.786Z,55.40
2019-05-26T20:39:06.558Z,54.80
2019-05-26T20:42:01.646Z,53.70
2019-05-26T20:44:56.991Z,62.10
2019-05-26T20:47:51.911Z,68.45
2019-05-26T20:50:47.264Z,60.90
2019-05-26T20:53:42.625Z,63.20
2019-05-26T20:56:37.531Z,62.15
2019-05-26T20:59:33.174Z,56.53
2019-05-26T21:02:28.705Z,70.03
2019-05-26T21:05:24.527Z,71.67
2019-05-26T21:08:20.108Z,62.65
2019-05-26T21:11:16.006Z,60.52
2019-05-26T21:14:11.009Z,72.37
2019-05-26T21:17:06.132Z,78.33
2019-05-26T21:20:01.643Z,83.25
2019-05-26T21:22:57.043Z,64.67
2019-05-26T21:25:51.775Z,71.07
2019-05-26T21:28:47.003Z,58.45
2019-05-26T21:31:42.118Z,59.65
2019-05-26T21:34:37.131Z,60.08
2019-05-26T21:37:32.490Z,55.65
2019-05-26T21:40:27.847Z,56.40
2019-05-26T21:43:23.725Z,61.48
2019-05-26T21:46:18.821Z,57.15
2019-05-26T21:49:13.776Z,63.55
2019-05-26T21:52:08.705Z,74.30
2019-05-26T21:55:03.517Z,69.12
2019-05-26T21:57:58.439Z,76.72
2019-05-26T22:00:54.775Z,72.12
2019-05-26T22:03:50.161Z,69.85
2019-05-26T22:06:45.973Z,73.33
2019-05-26T22:09:40.953Z,83.47
2019-05-26T22:12:36.161Z,79.82
2019-05-26T22:15:31.033Z,81.75
2019-05-26T22:18:26.229Z,95.40
2019-05-26T22:21:21.653Z,84.42
2019-05-26T22:24:17.000Z,80.45
2019-05-26T22:27:13.330Z,73.87
2019-05-26T22:30:08.988Z,74.55
2019-05-26T22:33:05.011Z,87.35
2019-05-26T22:36:00.200Z,77.10
2019-05-26T22:38:55.723Z,79.30
2019-05-26T22:41:51.508Z,65.78
2019-05-26T22:44:46.627Z,70.70
2019-05-26T22:47:44.212Z,67.62
2019-05-26T22:50:39.710Z,70.42
2019-05-26T22:53:36.960Z,75.62
2019-05-26T22:56:33.151Z,63.15
2019-05-26T22:59:29.746Z,60.83
2019-05-26T23:02:25.178Z,67.35
2019-05-26T23:05:21.400Z,62.80
2019-05-26T23:08:17.099Z,67.90
2019-05-26T23:11:13.291Z,68.62
2019-05-26T23:14:08.911Z,69.65
2019-05-26T23:17:07.431Z,70.10
2019-05-26T23:20:02.975Z,69.42
2019-05-26T23:22:58.657Z,67.15
2019-05-26T23:25:54.136Z,72.90
2019-05-26T23:28:49.797Z,75.97
2019-05-26T23:31:45.411Z,61.68
2019-05-26T23:34:40.121Z,69.40
2019-05-26T23:37:35.274Z,58.85
2019-05-26T23:40:30.342Z,65.20
2019-05-26T23:43:25.466Z,67.25
2019-05-26T23:46:20.627Z,68.47
2019-05-26T23:49:15.582Z,70.75
2019-05-26T23:52:10.277Z,63.48
2019-05-26T23:55:05.740Z,72.20
2019-05-26T23:58:01.586Z,79.75
